sensor_id;sensor_type;location;lat;lon;timestamp;P1;durP1;ratioP1;P2;durP2;ratioP2
78372;SDS011;67656;52.074;4.758;2023-02-10T00:02:29;16.50;;;4.70;;
78372;SDS011;67656;52.074;4.758;2023-02-10T00:07:29;14.67;;;4.47;;
78372;SDS011;67656;52.074;4.758;2023-02-10T00:12:30;17.10;;;4.03;;
78372;SDS011;67656;52.074;4.758;2023-02-10T00:17:30;14.97;;;4.57;;
78372;SDS011;67656;52.074;4.758;2023-02-10T00:22:30;19.17;;;4.37;;
78372;SDS011;67656;52.074;4.758;2023-02-10T00:27:31;14.50;;;3.83;;
78372;SDS011;67656;52.074;4.758;2023-02-10T00:32:31;11.93;;;4.33;;
78372;SDS011;67656;52.074;4.758;2023-02-10T00:37:31;12.40;;;4.23;;
78372;SDS011;67656;52.074;4.758;2023-02-10T00:42:32;18.30;;;5.03;;
78372;SDS011;67656;52.074;4.758;2023-02-10T00:47:32;20.27;;;5.20;;
78372;SDS011;67656;52.074;4.758;2023-02-10T00:52:34;15.20;;;5.30;;
78372;SDS011;67656;52.074;4.758;2023-02-10T00:57:34;17.97;;;6.33;;
78372;SDS011;67656;52.074;4.758;2023-02-10T01:02:34;20.80;;;5.80;;
78372;SDS011;67656;52.074;4.758;2023-02-10T01:07:35;14.80;;;5.23;;
78372;SDS011;67656;52.074;4.758;2023-02-10T01:12:35;28.73;;;7.00;;
78372;SDS011;67656;52.074;4.758;2023-02-10T01:17:36;26.60;;;6.17;;
78372;SDS011;67656;52.074;4.758;2023-02-10T01:22:36;21.43;;;6.80;;
78372;SDS011;67656;52.074;4.758;2023-02-10T01:27:38;25.17;;;7.33;;
78372;SDS011;67656;52.074;4.758;2023-02-10T01:32:41;32.80;;;7.50;;
78372;SDS011;67656;52.074;4.758;2023-02-10T01:37:41;32.63;;;8.17;;
78372;SDS011;67656;52.074;4.758;2023-02-10T01:42:42;38.63;;;9.50;;
78372;SDS011;67656;52.074;4.758;2023-02-10T01:47:42;31.80;;;8.97;;
78372;SDS011;67656;52.074;4.758;2023-02-10T01:52:45;35.83;;;9.00;;
78372;SDS011;67656;52.074;4.758;2023-02-10T01:57:47;40.07;;;10.57;;
78372;SDS011;67656;52.074;4.758;2023-02-10T02:02:49;50.97;;;10.90;;
78372;SDS011;67656;52.074;4.758;2023-02-10T02:07:50;38.70;;;9.27;;
78372;SDS011;67656;52.074;4.758;2023-02-10T02:13:04;37.10;;;8.80;;
78372;SDS011;67656;52.074;4.758;2023-02-10T02:18:15;40.33;;;9.53;;
78372;SDS011;67656;52.074;4.758;2023-02-10T02:29:09;38.30;;;8.57;;
78372;SDS011;67656;52.074;4.758;2023-02-10T02:34:49;40.50;;;8.77;;
78372;SDS011;67656;52.074;4.758;2023-02-10T02:39:54;34.70;;;7.77;;
78372;SDS011;67656;52.074;4.758;2023-02-10T02:45:02;33.10;;;8.27;;
78372;SDS011;67656;52.074;4.758;2023-02-10T02:50:29;27.77;;;6.93;;
78372;SDS011;67656;52.074;4.758;2023-02-10T02:55:49;27.20;;;7.77;;
78372;SDS011;67656;52.074;4.758;2023-02-10T03:00:57;30.17;;;7.57;;
78372;SDS011;67656;52.074;4.758;2023-02-10T03:06:01;24.13;;;6.30;;
78372;SDS011;67656;52.074;4.758;2023-02-10T03:11:02;23.63;;;5.83;;
78372;SDS011;67656;52.074;4.758;2023-02-10T03:16:03;25.80;;;5.40;;
78372;SDS011;67656;52.074;4.758;2023-02-10T03:21:04;30.53;;;6.53;;
78372;SDS011;67656;52.074;4.758;2023-02-10T03:26:05;24.10;;;6.10;;
78372;SDS011;67656;52.074;4.758;2023-02-10T03:31:05;26.97;;;7.50;;
78372;SDS011;67656;52.074;4.758;2023-02-10T03:36:07;23.63;;;7.03;;
78372;SDS011;67656;52.074;4.758;2023-02-10T03:41:08;34.00;;;7.13;;
78372;SDS011;67656;52.074;4.758;2023-02-10T03:46:09;31.37;;;7.50;;
78372;SDS011;67656;52.074;4.758;2023-02-10T03:51:10;37.93;;;7.60;;
78372;SDS011;67656;52.074;4.758;2023-02-10T03:56:11;35.73;;;7.87;;
78372;SDS011;67656;52.074;4.758;2023-02-10T04:01:13;35.27;;;7.03;;
78372;SDS011;67656;52.074;4.758;2023-02-10T04:06:15;24.63;;;6.63;;
78372;SDS011;67656;52.074;4.758;2023-02-10T04:11:15;31.20;;;6.20;;
78372;SDS011;67656;52.074;4.758;2023-02-10T04:16:16;28.67;;;6.07;;
78372;SDS011;67656;52.074;4.758;2023-02-10T04:21:17;29.40;;;7.30;;
78372;SDS011;67656;52.074;4.758;2023-02-10T04:26:17;35.70;;;7.63;;
78372;SDS011;67656;52.074;4.758;2023-02-10T04:31:17;44.33;;;8.57;;
78372;SDS011;67656;52.074;4.758;2023-02-10T04:36:18;38.07;;;8.27;;
78372;SDS011;67656;52.074;4.758;2023-02-10T04:41:18;43.73;;;9.80;;
78372;SDS011;67656;52.074;4.758;2023-02-10T04:46:19;44.07;;;9.20;;
78372;SDS011;67656;52.074;4.758;2023-02-10T04:51:19;50.87;;;10.93;;
78372;SDS011;67656;52.074;4.758;2023-02-10T04:56:20;45.10;;;11.30;;
78372;SDS011;67656;52.074;4.758;2023-02-10T05:01:20;43.17;;;10.33;;
78372;SDS011;67656;52.074;4.758;2023-02-10T05:06:20;55.27;;;11.50;;
78372;SDS011;67656;52.074;4.758;2023-02-10T05:11:21;53.60;;;11.43;;
78372;SDS011;67656;52.074;4.758;2023-02-10T05:16:21;51.50;;;11.37;;
78372;SDS011;67656;52.074;4.758;2023-02-10T05:21:22;54.87;;;12.47;;
78372;SDS011;67656;52.074;4.758;2023-02-10T05:26:22;54.77;;;11.97;;
78372;SDS011;67656;52.074;4.758;2023-02-10T05:31:22;39.50;;;10.73;;
78372;SDS011;67656;52.074;4.758;2023-02-10T05:36:23;57.50;;;11.10;;
78372;SDS011;67656;52.074;4.758;2023-02-10T05:41:24;53.90;;;10.83;;
78372;SDS011;67656;52.074;4.758;2023-02-10T05:46:24;53.60;;;10.93;;
78372;SDS011;67656;52.074;4.758;2023-02-10T05:51:24;64.30;;;13.77;;
78372;SDS011;67656;52.074;4.758;2023-02-10T05:56:25;56.43;;;12.03;;
78372;SDS011;67656;52.074;4.758;2023-02-10T06:01:25;75.53;;;12.63;;
78372;SDS011;67656;52.074;4.758;2023-02-10T06:06:26;63.60;;;13.17;;
78372;SDS011;67656;52.074;4.758;2023-02-10T06:11:27;60.00;;;12.33;;
78372;SDS011;67656;52.074;4.758;2023-02-10T06:16:27;61.47;;;13.10;;
78372;SDS011;67656;52.074;4.758;2023-02-10T06:21:28;50.47;;;10.50;;
78372;SDS011;67656;52.074;4.758;2023-02-10T06:26:31;57.53;;;12.63;;
78372;SDS011;67656;52.074;4.758;2023-02-10T06:31:31;48.57;;;11.10;;
78372;SDS011;67656;52.074;4.758;2023-02-10T06:36:32;39.80;;;10.63;;
78372;SDS011;67656;52.074;4.758;2023-02-10T06:41:32;45.70;;;11.50;;
78372;SDS011;67656;52.074;4.758;2023-02-10T06:46:33;45.27;;;10.93;;
78372;SDS011;67656;52.074;4.758;2023-02-10T06:51:34;35.33;;;9.00;;
78372;SDS011;67656;52.074;4.758;2023-02-10T06:56:34;49.37;;;12.20;;
78372;SDS011;67656;52.074;4.758;2023-02-10T07:01:36;41.03;;;10.07;;
78372;SDS011;67656;52.074;4.758;2023-02-10T07:06:37;36.20;;;10.10;;
78372;SDS011;67656;52.074;4.758;2023-02-10T07:11:38;36.93;;;10.53;;
78372;SDS011;67656;52.074;4.758;2023-02-10T07:16:39;42.17;;;10.80;;
78372;SDS011;67656;52.074;4.758;2023-02-10T07:21:42;38.93;;;10.77;;
78372;SDS011;67656;52.074;4.758;2023-02-10T07:26:48;46.57;;;11.53;;
78372;SDS011;67656;52.074;4.758;2023-02-10T07:31:58;45.27;;;11.47;;
78372;SDS011;67656;52.074;4.758;2023-02-10T07:36:58;40.40;;;11.10;;
78372;SDS011;67656;52.074;4.758;2023-02-10T07:41:59;47.37;;;12.23;;
78372;SDS011;67656;52.074;4.758;2023-02-10T07:47:28;47.40;;;11.53;;
78372;SDS011;67656;52.074;4.758;2023-02-10T07:52:28;37.83;;;11.00;;
78372;SDS011;67656;52.074;4.758;2023-02-10T07:57:36;46.90;;;13.53;;
78372;SDS011;67656;52.074;4.758;2023-02-10T08:02:51;48.80;;;12.77;;
78372;SDS011;67656;52.074;4.758;2023-02-10T08:07:51;45.40;;;13.07;;
78372;SDS011;67656;52.074;4.758;2023-02-10T08:12:52;47.60;;;13.33;;
78372;SDS011;67656;52.074;4.758;2023-02-10T08:17:52;38.33;;;12.47;;
78372;SDS011;67656;52.074;4.758;2023-02-10T08:22:53;43.83;;;13.10;;
78372;SDS011;67656;52.074;4.758;2023-02-10T08:27:54;37.33;;;11.63;;
78372;SDS011;67656;52.074;4.758;2023-02-10T08:32:55;54.30;;;14.67;;
78372;SDS011;67656;52.074;4.758;2023-02-10T08:37:55;38.70;;;11.40;;
78372;SDS011;67656;52.074;4.758;2023-02-10T08:42:56;44.73;;;13.73;;
78372;SDS011;67656;52.074;4.758;2023-02-10T08:48:01;36.60;;;11.97;;
78372;SDS011;67656;52.074;4.758;2023-02-10T08:53:11;49.53;;;14.27;;
78372;SDS011;67656;52.074;4.758;2023-02-10T08:58:12;53.50;;;15.40;;
78372;SDS011;67656;52.074;4.758;2023-02-10T09:03:12;40.03;;;12.30;;
78372;SDS011;67656;52.074;4.758;2023-02-10T09:08:15;41.13;;;13.43;;
78372;SDS011;67656;52.074;4.758;2023-02-10T09:13:18;45.20;;;13.73;;
78372;SDS011;67656;52.074;4.758;2023-02-10T09:18:19;47.50;;;14.47;;
78372;SDS011;67656;52.074;4.758;2023-02-10T09:23:19;43.93;;;13.90;;
78372;SDS011;67656;52.074;4.758;2023-02-10T09:28:20;37.33;;;11.70;;
78372;SDS011;67656;52.074;4.758;2023-02-10T09:33:20;33.53;;;10.73;;
78372;SDS011;67656;52.074;4.758;2023-02-10T09:38:22;29.33;;;10.43;;
78372;SDS011;67656;52.074;4.758;2023-02-10T09:48:37;29.40;;;11.47;;
78372;SDS011;67656;52.074;4.758;2023-02-10T09:53:47;32.10;;;11.30;;
78372;SDS011;67656;52.074;4.758;2023-02-10T10:04:22;22.53;;;8.37;;
78372;SDS011;67656;52.074;4.758;2023-02-10T10:09:39;24.70;;;9.65;;
78372;SDS011;67656;52.074;4.758;2023-02-10T10:14:45;27.10;;;9.47;;
78372;SDS011;67656;52.074;4.758;2023-02-10T10:19:50;24.13;;;9.03;;
78372;SDS011;67656;52.074;4.758;2023-02-10T10:25:06;23.50;;;9.40;;
78372;SDS011;67656;52.074;4.758;2023-02-10T10:30:19;24.00;;;9.30;;
78372;SDS011;67656;52.074;4.758;2023-02-10T10:35:32;21.73;;;8.07;;
78372;SDS011;67656;52.074;4.758;2023-02-10T10:46:35;24.40;;;7.73;;
78372;SDS011;67656;52.074;4.758;2023-02-10T10:52:35;20.10;;;7.70;;
78372;SDS011;67656;52.074;4.758;2023-02-10T10:58:10;19.43;;;7.57;;
78372;SDS011;67656;52.074;4.758;2023-02-10T11:03:19;20.17;;;7.67;;
78372;SDS011;67656;52.074;4.758;2023-02-10T11:08:24;23.97;;;8.27;;
78372;SDS011;67656;52.074;4.758;2023-02-10T11:13:28;23.10;;;8.23;;
78372;SDS011;67656;52.074;4.758;2023-02-10T11:18:31;21.23;;;8.30;;
78372;SDS011;67656;52.074;4.758;2023-02-10T11:23:31;21.60;;;8.43;;
78372;SDS011;67656;52.074;4.758;2023-02-10T11:28:46;21.75;;;7.85;;
78372;SDS011;67656;52.074;4.758;2023-02-10T11:34:00;20.30;;;7.90;;
78372;SDS011;67656;52.074;4.758;2023-02-10T11:39:34;18.17;;;7.90;;
78372;SDS011;67656;52.074;4.758;2023-02-10T11:44:37;21.20;;;8.23;;
78372;SDS011;67656;52.074;4.758;2023-02-10T11:49:42;23.60;;;7.87;;
78372;SDS011;67656;52.074;4.758;2023-02-10T11:54:46;19.63;;;7.97;;
78372;SDS011;67656;52.074;4.758;2023-02-10T12:37:05;26.23;;;10.13;;
78372;SDS011;67656;52.074;4.758;2023-02-10T12:47:29;31.00;;;10.30;;
78372;SDS011;67656;52.074;4.758;2023-02-10T12:52:44;36.03;;;11.30;;
78372;SDS011;67656;52.074;4.758;2023-02-10T12:58:00;34.50;;;12.00;;
78372;SDS011;67656;52.074;4.758;2023-02-10T13:08:26;34.33;;;12.30;;
78372;SDS011;67656;52.074;4.758;2023-02-10T13:13:34;34.63;;;12.67;;
78372;SDS011;67656;52.074;4.758;2023-02-10T13:18:41;38.50;;;12.47;;
78372;SDS011;67656;52.074;4.758;2023-02-10T13:24:07;40.80;;;13.00;;
78372;SDS011;67656;52.074;4.758;2023-02-10T13:29:21;23.13;;;8.90;;
78372;SDS011;67656;52.074;4.758;2023-02-10T13:34:41;16.13;;;5.70;;
78372;SDS011;67656;52.074;4.758;2023-02-10T13:39:52;16.48;;;6.50;;
78372;SDS011;67656;52.074;4.758;2023-02-10T13:44:56;20.50;;;6.27;;
78372;SDS011;67656;52.074;4.758;2023-02-10T13:50:00;22.02;;;7.47;;
78372;SDS011;67656;52.074;4.758;2023-02-10T14:05:31;17.97;;;6.37;;
78372;SDS011;67656;52.074;4.758;2023-02-10T14:10:33;13.63;;;6.30;;
78372;SDS011;67656;52.074;4.758;2023-02-10T14:15:35;18.65;;;6.93;;
78372;SDS011;67656;52.074;4.758;2023-02-10T14:20:47;15.60;;;7.10;;
78372;SDS011;67656;52.074;4.758;2023-02-10T14:25:56;17.48;;;6.80;;
78372;SDS011;67656;52.074;4.758;2023-02-10T14:31:00;15.07;;;6.93;;
78372;SDS011;67656;52.074;4.758;2023-02-10T14:36:06;18.17;;;7.20;;
78372;SDS011;67656;52.074;4.758;2023-02-10T14:41:15;19.45;;;7.40;;
78372;SDS011;67656;52.074;4.758;2023-02-10T14:46:20;21.40;;;8.32;;
78372;SDS011;67656;52.074;4.758;2023-02-10T14:51:23;25.88;;;10.05;;
78372;SDS011;67656;52.074;4.758;2023-02-10T14:56:26;24.98;;;10.57;;
78372;SDS011;67656;52.074;4.758;2023-02-10T15:01:34;18.73;;;7.65;;
78372;SDS011;67656;52.074;4.758;2023-02-10T15:06:36;30.85;;;11.30;;
78372;SDS011;67656;52.074;4.758;2023-02-10T15:11:53;32.90;;;11.30;;
78372;SDS011;67656;52.074;4.758;2023-02-10T15:17:02;30.40;;;12.02;;
78372;SDS011;67656;52.074;4.758;2023-02-10T15:22:33;34.85;;;11.95;;
78372;SDS011;67656;52.074;4.758;2023-02-10T15:27:38;31.17;;;11.47;;
78372;SDS011;67656;52.074;4.758;2023-02-10T15:32:40;31.17;;;12.07;;
78372;SDS011;67656;52.074;4.758;2023-02-10T15:38:02;28.25;;;11.60;;
78372;SDS011;67656;52.074;4.758;2023-02-10T15:54:15;37.90;;;12.17;;
78372;SDS011;67656;52.074;4.758;2023-02-10T15:59:17;30.23;;;11.53;;
78372;SDS011;67656;52.074;4.758;2023-02-10T16:04:25;27.47;;;11.00;;
78372;SDS011;67656;52.074;4.758;2023-02-10T16:16:32;22.33;;;8.27;;
78372;SDS011;67656;52.074;4.758;2023-02-10T16:21:32;21.10;;;7.60;;
78372;SDS011;67656;52.074;4.758;2023-02-10T16:31:50;21.33;;;7.53;;
78372;SDS011;67656;52.074;4.758;2023-02-10T16:36:51;21.93;;;7.53;;
78372;SDS011;67656;52.074;4.758;2023-02-10T16:41:52;15.93;;;7.07;;
78372;SDS011;67656;52.074;4.758;2023-02-10T16:46:58;22.30;;;7.63;;
78372;SDS011;67656;52.074;4.758;2023-02-10T16:52:01;16.43;;;6.03;;
78372;SDS011;67656;52.074;4.758;2023-02-10T16:57:08;17.87;;;6.60;;
78372;SDS011;67656;52.074;4.758;2023-02-10T17:02:13;18.03;;;7.00;;
78372;SDS011;67656;52.074;4.758;2023-02-10T17:14:11;17.87;;;7.13;;
78372;SDS011;67656;52.074;4.758;2023-02-10T17:19:23;18.50;;;8.00;;
78372;SDS011;67656;52.074;4.758;2023-02-10T17:24:33;20.37;;;7.83;;
78372;SDS011;67656;52.074;4.758;2023-02-10T17:29:33;18.20;;;7.37;;
78372;SDS011;67656;52.074;4.758;2023-02-10T17:34:34;19.53;;;6.63;;
78372;SDS011;67656;52.074;4.758;2023-02-10T17:39:40;20.23;;;6.87;;
78372;SDS011;67656;52.074;4.758;2023-02-10T17:45:32;16.30;;;5.90;;
78372;SDS011;67656;52.074;4.758;2023-02-10T17:50:52;15.97;;;5.83;;
78372;SDS011;67656;52.074;4.758;2023-02-10T17:56:33;16.37;;;5.63;;
78372;SDS011;67656;52.074;4.758;2023-02-10T18:08:36;12.10;;;5.23;;
78372;SDS011;67656;52.074;4.758;2023-02-10T18:26:48;9.13;;;3.37;;
78372;SDS011;67656;52.074;4.758;2023-02-10T18:31:56;7.53;;;3.00;;
78372;SDS011;67656;52.074;4.758;2023-02-10T18:37:02;10.67;;;3.67;;
78372;SDS011;67656;52.074;4.758;2023-02-10T18:53:43;6.63;;;2.20;;
78372;SDS011;67656;52.074;4.758;2023-02-10T19:16:38;6.83;;;3.10;;
78372;SDS011;67656;52.074;4.758;2023-02-10T19:21:49;10.82;;;3.30;;
78372;SDS011;67656;52.074;4.758;2023-02-10T19:26:50;10.47;;;2.47;;
78372;SDS011;67656;52.074;4.758;2023-02-10T19:31:53;14.83;;;2.80;;
78372;SDS011;67656;52.074;4.758;2023-02-10T19:37:06;11.57;;;3.10;;
78372;SDS011;67656;52.074;4.758;2023-02-10T19:42:32;10.17;;;3.17;;
78372;SDS011;67656;52.074;4.758;2023-02-10T19:47:35;10.10;;;3.93;;
78372;SDS011;67656;52.074;4.758;2023-02-10T19:58:13;11.50;;;3.57;;
78372;SDS011;67656;52.074;4.758;2023-02-10T20:03:16;13.47;;;4.30;;
78372;SDS011;67656;52.074;4.758;2023-02-10T20:08:31;8.53;;;2.53;;
78372;SDS011;67656;52.074;4.758;2023-02-10T20:13:46;10.48;;;2.70;;
78372;SDS011;67656;52.074;4.758;2023-02-10T20:18:49;10.00;;;2.73;;
78372;SDS011;67656;52.074;4.758;2023-02-10T20:23:53;6.83;;;2.43;;
78372;SDS011;67656;52.074;4.758;2023-02-10T20:28:56;14.67;;;2.63;;
78372;SDS011;67656;52.074;4.758;2023-02-10T20:34:16;11.17;;;2.83;;
78372;SDS011;67656;52.074;4.758;2023-02-10T20:39:16;13.87;;;2.27;;
78372;SDS011;67656;52.074;4.758;2023-02-10T20:44:20;15.37;;;2.50;;
78372;SDS011;67656;52.074;4.758;2023-02-10T20:49:23;8.50;;;2.10;;
78372;SDS011;67656;52.074;4.758;2023-02-10T20:54:23;10.67;;;2.60;;
78372;SDS011;67656;52.074;4.758;2023-02-10T20:59:24;13.00;;;2.70;;
78372;SDS011;67656;52.074;4.758;2023-02-10T21:04:25;19.53;;;5.37;;
78372;SDS011;67656;52.074;4.758;2023-02-10T21:09:26;8.93;;;2.53;;
78372;SDS011;67656;52.074;4.758;2023-02-10T21:14:27;14.37;;;1.87;;
78372;SDS011;67656;52.074;4.758;2023-02-10T21:19:27;11.00;;;2.07;;
78372;SDS011;67656;52.074;4.758;2023-02-10T21:24:28;12.87;;;2.97;;
78372;SDS011;67656;52.074;4.758;2023-02-10T21:29:34;14.03;;;2.23;;
78372;SDS011;67656;52.074;4.758;2023-02-10T21:34:35;8.70;;;1.83;;
78372;SDS011;67656;52.074;4.758;2023-02-10T21:39:40;11.10;;;1.97;;
78372;SDS011;67656;52.074;4.758;2023-02-10T21:44:41;10.47;;;2.60;;
78372;SDS011;67656;52.074;4.758;2023-02-10T21:49:44;8.97;;;1.73;;
78372;SDS011;67656;52.074;4.758;2023-02-10T21:54:45;10.03;;;2.10;;
78372;SDS011;67656;52.074;4.758;2023-02-10T21:59:48;8.87;;;1.80;;
78372;SDS011;67656;52.074;4.758;2023-02-10T22:04:48;14.60;;;2.40;;
78372;SDS011;67656;52.074;4.758;2023-02-10T22:09:51;17.63;;;2.27;;
78372;SDS011;67656;52.074;4.758;2023-02-10T22:14:52;11.00;;;2.90;;
78372;SDS011;67656;52.074;4.758;2023-02-10T22:19:52;17.77;;;2.00;;
78372;SDS011;67656;52.074;4.758;2023-02-10T22:24:52;14.13;;;2.17;;
78372;SDS011;67656;52.074;4.758;2023-02-10T22:29:53;7.73;;;2.03;;
78372;SDS011;67656;52.074;4.758;2023-02-10T22:34:53;10.77;;;2.20;;
78372;SDS011;67656;52.074;4.758;2023-02-10T22:39:54;11.00;;;1.77;;
78372;SDS011;67656;52.074;4.758;2023-02-10T22:44:56;12.00;;;2.00;;
78372;SDS011;67656;52.074;4.758;2023-02-10T22:49:57;13.90;;;2.07;;
78372;SDS011;67656;52.074;4.758;2023-02-10T22:54:57;13.60;;;2.40;;
78372;SDS011;67656;52.074;4.758;2023-02-10T22:59:58;10.13;;;1.90;;
78372;SDS011;67656;52.074;4.758;2023-02-10T23:04:58;13.57;;;2.30;;
78372;SDS011;67656;52.074;4.758;2023-02-10T23:09:59;13.07;;;1.80;;
78372;SDS011;67656;52.074;4.758;2023-02-10T23:14:59;16.20;;;3.53;;
78372;SDS011;67656;52.074;4.758;2023-02-10T23:20:00;13.73;;;1.93;;
78372;SDS011;67656;52.074;4.758;2023-02-10T23:25:01;13.83;;;1.90;;
78372;SDS011;67656;52.074;4.758;2023-02-10T23:30:02;13.63;;;2.27;;
78372;SDS011;67656;52.074;4.758;2023-02-10T23:35:05;14.63;;;2.23;;
78372;SDS011;67656;52.074;4.758;2023-02-10T23:40:08;12.30;;;2.10;;
78372;SDS011;67656;52.074;4.758;2023-02-10T23:45:09;12.37;;;2.47;;
78372;SDS011;67656;52.074;4.758;2023-02-10T23:50:12;14.13;;;1.90;;
78372;SDS011;67656;52.074;4.758;2023-02-10T23:55:13;8.80;;;1.80;;
